sensor_id;sensor_type;location;lat;lon;timestamp;temperature;humidity
2158;DHT22;41972;48.774;9.282;2023-08-17T00:00:06;19.60;99.90
2158;DHT22;41972;48.774;9.282;2023-08-17T00:02:35;19.60;99.90
2158;DHT22;41972;48.774;9.282;2023-08-17T00:05:01;19.70;99.90
2158;DHT22;41972;48.774;9.282;2023-08-17T00:07:26;19.80;99.90
2158;DHT22;41972;48.774;9.282;2023-08-17T00:09:52;19.90;99.90
2158;DHT22;41972;48.774;9.282;2023-08-17T00:12:17;20.00;99.90
2158;DHT22;41972;48.774;9.282;2023-08-17T00:14:43;20.00;99.90
2158;DHT22;41972;48.774;9.282;2023-08-17T00:17:09;20.00;99.90
2158;DHT22;41972;48.774;9.282;2023-08-17T00:19:34;20.10;99.90
2158;DHT22;41972;48.774;9.282;2023-08-17T00:22:01;20.10;99.90
2158;DHT22;41972;48.774;9.282;2023-08-17T00:24:27;20.10;99.90
2158;DHT22;41972;48.774;9.282;2023-08-17T00:26:52;20.00;99.90
2158;DHT22;41972;48.774;9.282;2023-08-17T00:29:18;20.10;99.90
2158;DHT22;41972;48.774;9.282;2023-08-17T00:31:43;20.30;99.90
2158;DHT22;41972;48.774;9.282;2023-08-17T00:34:09;20.30;99.90
2158;DHT22;41972;48.774;9.282;2023-08-17T00:36:34;20.40;99.90
2158;DHT22;41972;48.774;9.282;2023-08-17T00:39:01;20.50;99.90
2158;DHT22;41972;48.774;9.282;2023-08-17T00:41:26;20.10;99.90
2158;DHT22;41972;48.774;9.282;2023-08-17T00:43:54;20.10;99.90
2158;DHT22;41972;48.774;9.282;2023-08-17T00:46:20;20.20;99.90
2158;DHT22;41972;48.774;9.282;2023-08-17T00:48:48;20.30;99.90
2158;DHT22;41972;48.774;9.282;2023-08-17T00:51:13;20.30;99.90
2158;DHT22;41972;48.774;9.282;2023-08-17T00:53:39;20.30;99.90
2158;DHT22;41972;48.774;9.282;2023-08-17T00:56:05;20.00;99.90
2158;DHT22;41972;48.774;9.282;2023-08-17T00:58:31;20.00;99.90
2158;DHT22;41972;48.774;9.282;2023-08-17T01:00:57;20.10;99.90
2158;DHT22;41972;48.774;9.282;2023-08-17T01:03:24;20.00;99.90
2158;DHT22;41972;48.774;9.282;2023-08-17T01:05:50;19.90;99.90
2158;DHT22;41972;48.774;9.282;2023-08-17T01:08:16;19.90;99.90
2158;DHT22;41972;48.774;9.282;2023-08-17T01:10:59;20.00;99.90
2158;DHT22;41972;48.774;9.282;2023-08-17T01:16:26;20.00;99.90
2158;DHT22;41972;48.774;9.282;2023-08-17T01:18:52;20.10;99.90
2158;DHT22;41972;48.774;9.282;2023-08-17T01:21:21;20.30;99.90
2158;DHT22;41972;48.774;9.282;2023-08-17T01:23:49;20.20;99.90
2158;DHT22;41972;48.774;9.282;2023-08-17T01:26:15;20.10;99.90
2158;DHT22;41972;48.774;9.282;2023-08-17T01:28:45;20.20;99.90
2158;DHT22;41972;48.774;9.282;2023-08-17T01:31:19;20.30;99.90
2158;DHT22;41972;48.774;9.282;2023-08-17T01:33:56;20.30;99.90
2158;DHT22;41972;48.774;9.282;2023-08-17T01:36:31;20.40;99.90
2158;DHT22;41972;48.774;9.282;2023-08-17T01:38:59;20.40;99.90
2158;DHT22;41972;48.774;9.282;2023-08-17T01:41:26;20.30;99.90
2158;DHT22;41972;48.774;9.282;2023-08-17T01:43:53;20.30;99.90
2158;DHT22;41972;48.774;9.282;2023-08-17T01:46:19;20.40;99.90
2158;DHT22;41972;48.774;9.282;2023-08-17T01:48:46;20.40;99.90
2158;DHT22;41972;48.774;9.282;2023-08-17T01:51:18;20.30;99.90
2158;DHT22;41972;48.774;9.282;2023-08-17T01:53:47;20.20;99.90
2158;DHT22;41972;48.774;9.282;2023-08-17T01:56:12;20.30;99.90
2158;DHT22;41972;48.774;9.282;2023-08-17T01:58:38;20.30;99.90
2158;DHT22;41972;48.774;9.282;2023-08-17T02:01:04;20.20;99.90
2158;DHT22;41972;48.774;9.282;2023-08-17T02:03:29;20.20;99.90
2158;DHT22;41972;48.774;9.282;2023-08-17T02:05:59;20.00;99.90
2158;DHT22;41972;48.774;9.282;2023-08-17T02:08:25;20.00;99.90
2158;DHT22;41972;48.774;9.282;2023-08-17T02:10:50;20.00;99.90
2158;DHT22;41972;48.774;9.282;2023-08-17T02:13:17;19.80;99.90
2158;DHT22;41972;48.774;9.282;2023-08-17T02:15:43;19.90;99.90
2158;DHT22;41972;48.774;9.282;2023-08-17T02:18:09;20.00;99.90
2158;DHT22;41972;48.774;9.282;2023-08-17T02:20:34;20.00;99.90
2158;DHT22;41972;48.774;9.282;2023-08-17T02:23:00;19.90;99.90
2158;DHT22;41972;48.774;9.282;2023-08-17T02:25:26;19.80;99.90
2158;DHT22;41972;48.774;9.282;2023-08-17T02:27:52;19.70;99.90
2158;DHT22;41972;48.774;9.282;2023-08-17T02:30:18;19.70;99.90
2158;DHT22;41972;48.774;9.282;2023-08-17T02:32:43;19.70;99.90
2158;DHT22;41972;48.774;9.282;2023-08-17T02:35:10;19.80;99.90
2158;DHT22;41972;48.774;9.282;2023-08-17T02:37:35;19.80;99.90
2158;DHT22;41972;48.774;9.282;2023-08-17T02:40:01;19.70;99.90
2158;DHT22;41972;48.774;9.282;2023-08-17T02:42:27;19.70;99.90
2158;DHT22;41972;48.774;9.282;2023-08-17T02:44:52;19.80;99.90
2158;DHT22;41972;48.774;9.282;2023-08-17T02:47:18;19.80;99.90
2158;DHT22;41972;48.774;9.282;2023-08-17T02:49:43;19.80;99.90
2158;DHT22;41972;48.774;9.282;2023-08-17T02:52:09;19.70;99.90
2158;DHT22;41972;48.774;9.282;2023-08-17T02:54:34;19.80;99.90
2158;DHT22;41972;48.774;9.282;2023-08-17T02:57:00;19.80;99.90
2158;DHT22;41972;48.774;9.282;2023-08-17T02:59:25;19.80;99.90
2158;DHT22;41972;48.774;9.282;2023-08-17T03:01:51;19.90;99.90
2158;DHT22;41972;48.774;9.282;2023-08-17T03:04:16;20.00;99.90
2158;DHT22;41972;48.774;9.282;2023-08-17T03:06:42;19.90;99.90
2158;DHT22;41972;48.774;9.282;2023-08-17T03:09:08;19.80;99.90
2158;DHT22;41972;48.774;9.282;2023-08-17T03:11:33;19.70;99.90
2158;DHT22;41972;48.774;9.282;2023-08-17T03:13:59;19.90;99.90
2158;DHT22;41972;48.774;9.282;2023-08-17T03:16:27;19.70;99.90
2158;DHT22;41972;48.774;9.282;2023-08-17T03:18:55;19.60;99.90
2158;DHT22;41972;48.774;9.282;2023-08-17T03:21:21;19.40;99.90
2158;DHT22;41972;48.774;9.282;2023-08-17T03:23:47;19.40;99.90
2158;DHT22;41972;48.774;9.282;2023-08-17T03:26:12;19.50;99.90
2158;DHT22;41972;48.774;9.282;2023-08-17T03:28:38;19.30;99.90
2158;DHT22;41972;48.774;9.282;2023-08-17T03:31:03;19.20;99.90
2158;DHT22;41972;48.774;9.282;2023-08-17T03:33:29;19.10;99.90
2158;DHT22;41972;48.774;9.282;2023-08-17T03:35:55;19.10;99.90
2158;DHT22;41972;48.774;9.282;2023-08-17T03:38:20;19.00;99.90
2158;DHT22;41972;48.774;9.282;2023-08-17T03:40:47;19.00;99.90
2158;DHT22;41972;48.774;9.282;2023-08-17T03:43:13;19.00;99.90
2158;DHT22;41972;48.774;9.282;2023-08-17T03:45:41;19.00;99.90
2158;DHT22;41972;48.774;9.282;2023-08-17T03:48:07;18.90;99.90
2158;DHT22;41972;48.774;9.282;2023-08-17T03:50:32;18.90;99.90
2158;DHT22;41972;48.774;9.282;2023-08-17T03:52:58;19.00;99.90
2158;DHT22;41972;48.774;9.282;2023-08-17T03:55:24;19.00;99.90
2158;DHT22;41972;48.774;9.282;2023-08-17T03:57:49;19.00;99.90
2158;DHT22;41972;48.774;9.282;2023-08-17T04:00:15;19.10;99.90
2158;DHT22;41972;48.774;9.282;2023-08-17T04:02:40;19.30;99.90
2158;DHT22;41972;48.774;9.282;2023-08-17T04:05:06;19.10;99.90
2158;DHT22;41972;48.774;9.282;2023-08-17T04:07:32;19.10;99.90
2158;DHT22;41972;48.774;9.282;2023-08-17T04:09:57;19.30;99.90
2158;DHT22;41972;48.774;9.282;2023-08-17T04:12:23;19.30;99.90
2158;DHT22;41972;48.774;9.282;2023-08-17T04:14:49;19.40;99.90
2158;DHT22;41972;48.774;9.282;2023-08-17T04:17:14;19.50;99.90
2158;DHT22;41972;48.774;9.282;2023-08-17T04:19:40;19.50;99.90
2158;DHT22;41972;48.774;9.282;2023-08-17T04:22:05;19.50;99.90
2158;DHT22;41972;48.774;9.282;2023-08-17T04:24:31;19.30;99.90
2158;DHT22;41972;48.774;9.282;2023-08-17T04:26:57;19.20;99.90
2158;DHT22;41972;48.774;9.282;2023-08-17T04:29:22;19.20;99.90
2158;DHT22;41972;48.774;9.282;2023-08-17T04:31:48;19.20;99.90
2158;DHT22;41972;48.774;9.282;2023-08-17T04:34:13;19.30;99.90
2158;DHT22;41972;48.774;9.282;2023-08-17T04:36:39;19.50;99.90
2158;DHT22;41972;48.774;9.282;2023-08-17T04:39:05;19.60;99.90
2158;DHT22;41972;48.774;9.282;2023-08-17T04:41:30;19.60;99.90
2158;DHT22;41972;48.774;9.282;2023-08-17T04:43:56;19.40;99.90
2158;DHT22;41972;48.774;9.282;2023-08-17T04:46:22;19.40;99.90
2158;DHT22;41972;48.774;9.282;2023-08-17T04:48:49;19.50;99.90
2158;DHT22;41972;48.774;9.282;2023-08-17T04:51:15;19.50;99.90
2158;DHT22;41972;48.774;9.282;2023-08-17T04:53:40;19.70;99.90
2158;DHT22;41972;48.774;9.282;2023-08-17T04:56:06;19.90;99.90
2158;DHT22;41972;48.774;9.282;2023-08-17T04:58:32;20.00;99.90
2158;DHT22;41972;48.774;9.282;2023-08-17T05:00:59;20.00;99.90
2158;DHT22;41972;48.774;9.282;2023-08-17T05:03:24;20.00;99.90
2158;DHT22;41972;48.774;9.282;2023-08-17T05:05:52;20.10;99.90
2158;DHT22;41972;48.774;9.282;2023-08-17T05:08:18;20.10;99.90
2158;DHT22;41972;48.774;9.282;2023-08-17T05:10:43;20.10;99.90
2158;DHT22;41972;48.774;9.282;2023-08-17T05:13:09;20.20;99.90
2158;DHT22;41972;48.774;9.282;2023-08-17T05:15:34;20.30;99.90
2158;DHT22;41972;48.774;9.282;2023-08-17T05:18:00;20.40;99.90
2158;DHT22;41972;48.774;9.282;2023-08-17T05:20:25;20.20;99.90
2158;DHT22;41972;48.774;9.282;2023-08-17T05:22:51;20.20;99.90
2158;DHT22;41972;48.774;9.282;2023-08-17T05:25:17;20.20;99.90
2158;DHT22;41972;48.774;9.282;2023-08-17T05:27:42;20.30;99.90
2158;DHT22;41972;48.774;9.282;2023-08-17T05:30:08;20.50;99.90
2158;DHT22;41972;48.774;9.282;2023-08-17T05:32:33;20.60;99.90
2158;DHT22;41972;48.774;9.282;2023-08-17T05:34:59;20.80;99.90
2158;DHT22;41972;48.774;9.282;2023-08-17T05:37:24;21.00;99.90
2158;DHT22;41972;48.774;9.282;2023-08-17T05:39:51;21.00;99.90
2158;DHT22;41972;48.774;9.282;2023-08-17T05:42:17;21.10;99.90
2158;DHT22;41972;48.774;9.282;2023-08-17T05:44:42;21.50;99.90
2158;DHT22;41972;48.774;9.282;2023-08-17T05:47:08;21.90;99.90
2158;DHT22;41972;48.774;9.282;2023-08-17T05:49:33;21.90;99.90
2158;DHT22;41972;48.774;9.282;2023-08-17T05:51:59;22.00;99.90
2158;DHT22;41972;48.774;9.282;2023-08-17T05:54:24;21.70;99.90
2158;DHT22;41972;48.774;9.282;2023-08-17T05:56:50;21.10;99.90
2158;DHT22;41972;48.774;9.282;2023-08-17T05:59:15;21.00;99.90
2158;DHT22;41972;48.774;9.282;2023-08-17T06:01:41;21.00;99.90
2158;DHT22;41972;48.774;9.282;2023-08-17T06:04:07;21.30;99.90
2158;DHT22;41972;48.774;9.282;2023-08-17T06:06:32;21.40;99.90
2158;DHT22;41972;48.774;9.282;2023-08-17T06:08:58;21.60;99.90
2158;DHT22;41972;48.774;9.282;2023-08-17T06:11:24;21.70;99.90
2158;DHT22;41972;48.774;9.282;2023-08-17T06:13:49;21.80;99.90
2158;DHT22;41972;48.774;9.282;2023-08-17T06:16:15;22.00;99.90
2158;DHT22;41972;48.774;9.282;2023-08-17T06:18:41;22.50;99.90
2158;DHT22;41972;48.774;9.282;2023-08-17T06:21:07;22.90;99.90
2158;DHT22;41972;48.774;9.282;2023-08-17T06:23:33;22.60;99.90
2158;DHT22;41972;48.774;9.282;2023-08-17T06:25:58;21.90;99.90
2158;DHT22;41972;48.774;9.282;2023-08-17T06:28:25;22.10;99.90
2158;DHT22;41972;48.774;9.282;2023-08-17T06:30:55;22.50;99.90
2158;DHT22;41972;48.774;9.282;2023-08-17T06:33:21;22.60;99.90
2158;DHT22;41972;48.774;9.282;2023-08-17T06:35:47;22.40;99.90
2158;DHT22;41972;48.774;9.282;2023-08-17T06:38:13;22.70;99.90
2158;DHT22;41972;48.774;9.282;2023-08-17T06:40:39;22.80;99.90
2158;DHT22;41972;48.774;9.282;2023-08-17T06:43:04;22.90;99.90
2158;DHT22;41972;48.774;9.282;2023-08-17T06:45:33;22.70;99.90
2158;DHT22;41972;48.774;9.282;2023-08-17T06:47:59;22.70;99.90
2158;DHT22;41972;48.774;9.282;2023-08-17T06:50:24;22.90;99.90
2158;DHT22;41972;48.774;9.282;2023-08-17T06:52:52;23.00;99.90
2158;DHT22;41972;48.774;9.282;2023-08-17T06:55:17;22.80;99.90
2158;DHT22;41972;48.774;9.282;2023-08-17T06:57:43;23.50;99.90
2158;DHT22;41972;48.774;9.282;2023-08-17T07:00:10;25.20;99.90
2158;DHT22;41972;48.774;9.282;2023-08-17T07:02:38;26.80;99.90
2158;DHT22;41972;48.774;9.282;2023-08-17T07:05:04;25.50;99.90
2158;DHT22;41972;48.774;9.282;2023-08-17T07:07:30;24.70;99.90
2158;DHT22;41972;48.774;9.282;2023-08-17T07:09:59;25.50;99.90
2158;DHT22;41972;48.774;9.282;2023-08-17T07:12:24;25.80;99.90
2158;DHT22;41972;48.774;9.282;2023-08-17T07:14:50;27.20;99.90
2158;DHT22;41972;48.774;9.282;2023-08-17T07:17:16;28.00;99.90
2158;DHT22;41972;48.774;9.282;2023-08-17T07:19:42;26.10;99.90
2158;DHT22;41972;48.774;9.282;2023-08-17T07:22:07;24.20;99.90
2158;DHT22;41972;48.774;9.282;2023-08-17T07:24:33;24.40;99.90
2158;DHT22;41972;48.774;9.282;2023-08-17T07:26:58;24.90;99.90
2158;DHT22;41972;48.774;9.282;2023-08-17T07:29:24;24.90;99.90
2158;DHT22;41972;48.774;9.282;2023-08-17T07:31:49;24.50;99.90
2158;DHT22;41972;48.774;9.282;2023-08-17T07:34:15;24.40;99.90
2158;DHT22;41972;48.774;9.282;2023-08-17T07:36:41;24.50;99.90
2158;DHT22;41972;48.774;9.282;2023-08-17T07:39:07;24.60;99.90
2158;DHT22;41972;48.774;9.282;2023-08-17T07:41:32;24.30;99.90
2158;DHT22;41972;48.774;9.282;2023-08-17T07:43:58;23.80;99.90
2158;DHT22;41972;48.774;9.282;2023-08-17T07:46:24;24.50;99.90
2158;DHT22;41972;48.774;9.282;2023-08-17T07:48:49;25.10;99.90
2158;DHT22;41972;48.774;9.282;2023-08-17T07:51:15;25.20;99.90
2158;DHT22;41972;48.774;9.282;2023-08-17T07:53:41;25.30;99.90
2158;DHT22;41972;48.774;9.282;2023-08-17T07:56:06;26.20;99.90
2158;DHT22;41972;48.774;9.282;2023-08-17T07:58:32;27.00;99.90
2158;DHT22;41972;48.774;9.282;2023-08-17T08:00:57;27.80;99.90
2158;DHT22;41972;48.774;9.282;2023-08-17T08:03:23;29.10;99.90
2158;DHT22;41972;48.774;9.282;2023-08-17T08:05:48;29.20;99.90
2158;DHT22;41972;48.774;9.282;2023-08-17T08:08:14;29.20;99.90
2158;DHT22;41972;48.774;9.282;2023-08-17T08:10:40;30.00;99.90
2158;DHT22;41972;48.774;9.282;2023-08-17T08:13:06;29.80;99.90
2158;DHT22;41972;48.774;9.282;2023-08-17T08:15:33;31.50;99.90
2158;DHT22;41972;48.774;9.282;2023-08-17T08:17:59;33.00;99.90
2158;DHT22;41972;48.774;9.282;2023-08-17T08:20:24;32.10;98.10
2158;DHT22;41972;48.774;9.282;2023-08-17T08:22:50;29.40;99.90
2158;DHT22;41972;48.774;9.282;2023-08-17T08:25:15;30.60;99.90
2158;DHT22;41972;48.774;9.282;2023-08-17T08:27:41;32.20;99.90
2158;DHT22;41972;48.774;9.282;2023-08-17T08:30:07;34.00;94.80
2158;DHT22;41972;48.774;9.282;2023-08-17T08:32:33;32.90;96.20
2158;DHT22;41972;48.774;9.282;2023-08-17T08:34:58;34.50;95.50
2158;DHT22;41972;48.774;9.282;2023-08-17T08:37:24;34.90;88.90
2158;DHT22;41972;48.774;9.282;2023-08-17T08:39:51;33.20;92.60
2158;DHT22;41972;48.774;9.282;2023-08-17T08:42:22;32.90;93.10
2158;DHT22;41972;48.774;9.282;2023-08-17T08:44:49;34.60;86.50
2158;DHT22;41972;48.774;9.282;2023-08-17T08:47:16;31.60;92.00
2158;DHT22;41972;48.774;9.282;2023-08-17T08:49:54;29.80;99.90
2158;DHT22;41972;48.774;9.282;2023-08-17T08:52:23;34.10;93.40
2158;DHT22;41972;48.774;9.282;2023-08-17T08:54:54;34.20;91.10
2158;DHT22;41972;48.774;9.282;2023-08-17T08:57:23;34.20;86.20
2158;DHT22;41972;48.774;9.282;2023-08-17T08:59:49;34.70;79.70
2158;DHT22;41972;48.774;9.282;2023-08-17T09:02:15;33.50;86.00
2158;DHT22;41972;48.774;9.282;2023-08-17T09:04:43;32.50;86.60
2158;DHT22;41972;48.774;9.282;2023-08-17T09:07:11;32.10;89.40
2158;DHT22;41972;48.774;9.282;2023-08-17T09:09:38;32.40;88.70
2158;DHT22;41972;48.774;9.282;2023-08-17T09:12:06;35.30;83.50
2158;DHT22;41972;48.774;9.282;2023-08-17T09:14:32;36.50;67.90
2158;DHT22;41972;48.774;9.282;2023-08-17T09:16:58;35.60;72.70
2158;DHT22;41972;48.774;9.282;2023-08-17T09:19:24;36.60;67.10
2158;DHT22;41972;48.774;9.282;2023-08-17T09:21:50;36.00;64.80
2158;DHT22;41972;48.774;9.282;2023-08-17T09:24:15;35.60;62.40
2158;DHT22;41972;48.774;9.282;2023-08-17T09:26:41;35.80;66.40
2158;DHT22;41972;48.774;9.282;2023-08-17T09:29:20;38.40;56.90
2158;DHT22;41972;48.774;9.282;2023-08-17T09:31:46;36.30;68.30
2158;DHT22;41972;48.774;9.282;2023-08-17T09:34:12;37.20;60.20
2158;DHT22;41972;48.774;9.282;2023-08-17T09:36:40;38.80;74.30
2158;DHT22;41972;48.774;9.282;2023-08-17T09:39:05;37.90;99.90
2158;DHT22;41972;48.774;9.282;2023-08-17T09:41:38;38.70;99.90
2158;DHT22;41972;48.774;9.282;2023-08-17T09:44:04;38.10;99.90
2158;DHT22;41972;48.774;9.282;2023-08-17T09:46:31;33.40;99.90
2158;DHT22;41972;48.774;9.282;2023-08-17T09:48:56;36.20;99.90
2158;DHT22;41972;48.774;9.282;2023-08-17T09:51:22;36.00;99.90
2158;DHT22;41972;48.774;9.282;2023-08-17T09:53:52;38.50;99.90
2158;DHT22;41972;48.774;9.282;2023-08-17T09:56:21;39.10;99.90
2158;DHT22;41972;48.774;9.282;2023-08-17T09:58:47;39.50;99.90
2158;DHT22;41972;48.774;9.282;2023-08-17T10:01:12;37.20;99.90
2158;DHT22;41972;48.774;9.282;2023-08-17T10:03:43;37.90;99.90
2158;DHT22;41972;48.774;9.282;2023-08-17T10:06:13;38.50;99.90
2158;DHT22;41972;48.774;9.282;2023-08-17T10:08:47;37.70;99.90
2158;DHT22;41972;48.774;9.282;2023-08-17T10:11:18;35.20;99.90
2158;DHT22;41972;48.774;9.282;2023-08-17T10:13:54;36.60;99.90
2158;DHT22;41972;48.774;9.282;2023-08-17T10:16:25;34.20;99.90
2158;DHT22;41972;48.774;9.282;2023-08-17T10:18:56;33.40;99.90
2158;DHT22;41972;48.774;9.282;2023-08-17T10:21:28;34.30;99.90
2158;DHT22;41972;48.774;9.282;2023-08-17T10:23:55;35.30;99.90
2158;DHT22;41972;48.774;9.282;2023-08-17T10:26:22;35.80;99.90
2158;DHT22;41972;48.774;9.282;2023-08-17T10:28:48;35.70;99.90
2158;DHT22;41972;48.774;9.282;2023-08-17T10:31:15;33.10;99.90
2158;DHT22;41972;48.774;9.282;2023-08-17T10:33:41;33.50;99.90
2158;DHT22;41972;48.774;9.282;2023-08-17T10:36:10;34.20;99.90
2158;DHT22;41972;48.774;9.282;2023-08-17T10:38:36;34.50;99.90
2158;DHT22;41972;48.774;9.282;2023-08-17T10:41:28;36.90;99.90
2158;DHT22;41972;48.774;9.282;2023-08-17T10:44:00;38.40;99.90
2158;DHT22;41972;48.774;9.282;2023-08-17T10:46:36;36.20;99.90
2158;DHT22;41972;48.774;9.282;2023-08-17T10:49:05;33.10;99.90
2158;DHT22;41972;48.774;9.282;2023-08-17T10:51:31;31.30;99.90
2158;DHT22;41972;48.774;9.282;2023-08-17T10:53:59;32.60;99.90
2158;DHT22;41972;48.774;9.282;2023-08-17T10:56:27;33.10;99.90
2158;DHT22;41972;48.774;9.282;2023-08-17T10:58:53;35.20;99.90
2158;DHT22;41972;48.774;9.282;2023-08-17T11:01:36;36.20;99.90
2158;DHT22;41972;48.774;9.282;2023-08-17T11:04:16;36.30;99.90
2158;DHT22;41972;48.774;9.282;2023-08-17T11:06:44;35.00;99.90
2158;DHT22;41972;48.774;9.282;2023-08-17T11:09:10;33.20;99.90
2158;DHT22;41972;48.774;9.282;2023-08-17T11:11:37;31.50;99.90
2158;DHT22;41972;48.774;9.282;2023-08-17T11:14:03;30.80;99.90
2158;DHT22;41972;48.774;9.282;2023-08-17T11:16:28;31.40;99.90
2158;DHT22;41972;48.774;9.282;2023-08-17T11:25:38;31.60;99.90
2158;DHT22;41972;48.774;9.282;2023-08-17T11:28:06;29.90;99.90
2158;DHT22;41972;48.774;9.282;2023-08-17T11:30:32;30.30;99.90
2158;DHT22;41972;48.774;9.282;2023-08-17T11:32:59;30.50;99.90
2158;DHT22;41972;48.774;9.282;2023-08-17T11:35:25;30.10;99.90
2158;DHT22;41972;48.774;9.282;2023-08-17T11:37:52;29.90;99.90
2158;DHT22;41972;48.774;9.282;2023-08-17T11:40:18;29.40;99.90
2158;DHT22;41972;48.774;9.282;2023-08-17T11:42:44;29.40;99.90
2158;DHT22;41972;48.774;9.282;2023-08-17T11:45:10;29.70;99.90
2158;DHT22;41972;48.774;9.282;2023-08-17T11:47:39;29.60;99.90
2158;DHT22;41972;48.774;9.282;2023-08-17T11:50:06;29.50;99.90
2158;DHT22;41972;48.774;9.282;2023-08-17T11:52:34;29.80;99.90
2158;DHT22;41972;48.774;9.282;2023-08-17T11:55:00;29.60;99.90
2158;DHT22;41972;48.774;9.282;2023-08-17T11:57:26;29.40;99.90
2158;DHT22;41972;48.774;9.282;2023-08-17T11:59:56;29.10;99.90
2158;DHT22;41972;48.774;9.282;2023-08-17T12:02:26;28.90;99.90
2158;DHT22;41972;48.774;9.282;2023-08-17T12:04:52;29.20;99.90
2158;DHT22;41972;48.774;9.282;2023-08-17T12:07:19;29.30;99.90
2158;DHT22;41972;48.774;9.282;2023-08-17T12:09:46;29.80;99.90
2158;DHT22;41972;48.774;9.282;2023-08-17T12:12:12;29.70;99.90
2158;DHT22;41972;48.774;9.282;2023-08-17T12:14:41;29.90;99.90
2158;DHT22;41972;48.774;9.282;2023-08-17T12:17:07;29.50;99.90
2158;DHT22;41972;48.774;9.282;2023-08-17T12:19:32;29.70;99.90
2158;DHT22;41972;48.774;9.282;2023-08-17T12:21:58;29.50;99.90
2158;DHT22;41972;48.774;9.282;2023-08-17T12:24:24;29.00;99.90
2158;DHT22;41972;48.774;9.282;2023-08-17T12:26:50;29.50;99.90
2158;DHT22;41972;48.774;9.282;2023-08-17T12:29:15;29.20;99.90
2158;DHT22;41972;48.774;9.282;2023-08-17T12:31:42;28.70;99.90
2158;DHT22;41972;48.774;9.282;2023-08-17T12:34:08;28.30;99.90
2158;DHT22;41972;48.774;9.282;2023-08-17T12:36:34;28.40;99.90
2158;DHT22;41972;48.774;9.282;2023-08-17T12:39:04;28.50;99.90
2158;DHT22;41972;48.774;9.282;2023-08-17T12:41:29;28.60;99.90
2158;DHT22;41972;48.774;9.282;2023-08-17T12:43:55;28.40;99.90
2158;DHT22;41972;48.774;9.282;2023-08-17T12:46:24;28.30;99.90
2158;DHT22;41972;48.774;9.282;2023-08-17T12:48:50;27.90;99.90
2158;DHT22;41972;48.774;9.282;2023-08-17T12:51:15;27.60;99.90
2158;DHT22;41972;48.774;9.282;2023-08-17T12:53:41;27.20;99.90
2158;DHT22;41972;48.774;9.282;2023-08-17T12:56:07;26.90;99.90
2158;DHT22;41972;48.774;9.282;2023-08-17T12:58:33;27.00;99.90
2158;DHT22;41972;48.774;9.282;2023-08-17T13:00:59;26.70;99.90
2158;DHT22;41972;48.774;9.282;2023-08-17T13:03:24;26.40;99.90
2158;DHT22;41972;48.774;9.282;2023-08-17T13:05:50;26.40;99.90
2158;DHT22;41972;48.774;9.282;2023-08-17T13:08:15;26.10;99.90
2158;DHT22;41972;48.774;9.282;2023-08-17T13:10:41;26.30;99.90
2158;DHT22;41972;48.774;9.282;2023-08-17T13:13:07;26.50;99.90
2158;DHT22;41972;48.774;9.282;2023-08-17T13:15:33;26.30;99.90
2158;DHT22;41972;48.774;9.282;2023-08-17T13:17:59;26.10;99.90
2158;DHT22;41972;48.774;9.282;2023-08-17T13:20:25;26.10;99.90
2158;DHT22;41972;48.774;9.282;2023-08-17T13:22:52;26.00;99.90
2158;DHT22;41972;48.774;9.282;2023-08-17T13:25:17;26.00;99.90
2158;DHT22;41972;48.774;9.282;2023-08-17T13:27:43;25.70;99.90
2158;DHT22;41972;48.774;9.282;2023-08-17T13:30:10;25.60;99.90
2158;DHT22;41972;48.774;9.282;2023-08-17T13:32:36;25.70;99.90
2158;DHT22;41972;48.774;9.282;2023-08-17T13:35:02;25.60;99.90
2158;DHT22;41972;48.774;9.282;2023-08-17T13:37:28;25.60;99.90
2158;DHT22;41972;48.774;9.282;2023-08-17T13:39:54;25.70;99.90
2158;DHT22;41972;48.774;9.282;2023-08-17T13:42:20;25.60;99.90
2158;DHT22;41972;48.774;9.282;2023-08-17T13:44:46;25.50;99.90
2158;DHT22;41972;48.774;9.282;2023-08-17T13:47:12;25.30;99.90
2158;DHT22;41972;48.774;9.282;2023-08-17T13:49:38;25.20;99.90
2158;DHT22;41972;48.774;9.282;2023-08-17T13:52:03;25.00;99.90
2158;DHT22;41972;48.774;9.282;2023-08-17T13:54:29;24.90;99.90
2158;DHT22;41972;48.774;9.282;2023-08-17T13:56:55;24.70;99.90
2158;DHT22;41972;48.774;9.282;2023-08-17T13:59:20;24.70;99.90
2158;DHT22;41972;48.774;9.282;2023-08-17T14:01:46;24.60;99.90
2158;DHT22;41972;48.774;9.282;2023-08-17T14:04:11;24.50;99.90
2158;DHT22;41972;48.774;9.282;2023-08-17T14:06:41;24.50;99.90
2158;DHT22;41972;48.774;9.282;2023-08-17T14:09:06;24.30;99.90
2158;DHT22;41972;48.774;9.282;2023-08-17T14:11:32;24.30;99.90
2158;DHT22;41972;48.774;9.282;2023-08-17T14:13:58;24.30;99.90
2158;DHT22;41972;48.774;9.282;2023-08-17T14:16:24;24.50;99.90
2158;DHT22;41972;48.774;9.282;2023-08-17T14:18:49;24.50;99.90
2158;DHT22;41972;48.774;9.282;2023-08-17T14:21:15;24.60;99.90
2158;DHT22;41972;48.774;9.282;2023-08-17T14:23:41;24.70;99.90
2158;DHT22;41972;48.774;9.282;2023-08-17T14:26:06;24.50;99.90
2158;DHT22;41972;48.774;9.282;2023-08-17T14:28:32;24.50;99.90
2158;DHT22;41972;48.774;9.282;2023-08-17T14:30:58;24.70;99.90
2158;DHT22;41972;48.774;9.282;2023-08-17T14:33:23;24.50;99.90
2158;DHT22;41972;48.774;9.282;2023-08-17T14:35:49;24.00;99.90
2158;DHT22;41972;48.774;9.282;2023-08-17T14:38:16;23.70;99.90
2158;DHT22;41972;48.774;9.282;2023-08-17T14:40:45;23.70;99.90
2158;DHT22;41972;48.774;9.282;2023-08-17T14:43:11;23.70;99.90
2158;DHT22;41972;48.774;9.282;2023-08-17T14:45:39;23.80;99.90
2158;DHT22;41972;48.774;9.282;2023-08-17T14:48:05;24.00;99.90
2158;DHT22;41972;48.774;9.282;2023-08-17T14:50:31;23.90;99.90
2158;DHT22;41972;48.774;9.282;2023-08-17T14:52:57;24.00;99.90
2158;DHT22;41972;48.774;9.282;2023-08-17T14:55:22;24.10;99.90
2158;DHT22;41972;48.774;9.282;2023-08-17T14:57:48;23.90;99.90
2158;DHT22;41972;48.774;9.282;2023-08-17T15:00:15;23.90;99.90
2158;DHT22;41972;48.774;9.282;2023-08-17T15:02:40;23.80;99.90
2158;DHT22;41972;48.774;9.282;2023-08-17T15:05:06;23.70;99.90
2158;DHT22;41972;48.774;9.282;2023-08-17T15:07:32;23.90;99.90
2158;DHT22;41972;48.774;9.282;2023-08-17T15:09:57;24.00;99.90
2158;DHT22;41972;48.774;9.282;2023-08-17T15:12:23;24.30;99.90
2158;DHT22;41972;48.774;9.282;2023-08-17T15:14:48;24.20;99.90
2158;DHT22;41972;48.774;9.282;2023-08-17T15:17:14;24.10;99.90
2158;DHT22;41972;48.774;9.282;2023-08-17T15:19:39;24.20;99.90
2158;DHT22;41972;48.774;9.282;2023-08-17T15:22:05;24.10;99.90
2158;DHT22;41972;48.774;9.282;2023-08-17T15:24:31;24.20;99.90
2158;DHT22;41972;48.774;9.282;2023-08-17T15:26:56;24.20;99.90
2158;DHT22;41972;48.774;9.282;2023-08-17T15:29:22;24.40;99.90
2158;DHT22;41972;48.774;9.282;2023-08-17T15:31:48;24.40;99.90
2158;DHT22;41972;48.774;9.282;2023-08-17T15:34:13;24.30;99.90
2158;DHT22;41972;48.774;9.282;2023-08-17T15:36:39;24.50;99.90
2158;DHT22;41972;48.774;9.282;2023-08-17T15:39:04;24.60;99.90
2158;DHT22;41972;48.774;9.282;2023-08-17T15:41:30;24.80;99.90
2158;DHT22;41972;48.774;9.282;2023-08-17T15:43:56;24.70;99.90
2158;DHT22;41972;48.774;9.282;2023-08-17T15:46:21;24.80;99.90
2158;DHT22;41972;48.774;9.282;2023-08-17T15:48:47;24.80;99.90